首页
METAR-TAF:

METAR-TAF

机场 :

羅曼·莫圖國際機場

科羅爾, 巴伯尔道布岛, 帛琉

纬度: 07-22N, 经度: 134-32E, 海拔: 54米

当前天气观测

该预报发布于53分钟前的10:55 UTC
静风
温度 27°C
湿度 89%
气压 1009 hPa
能見度: 22.5公里
散云层高于1600英尺, 积雨云.
多云层高于11000英尺
多云层高于29000英尺

METAR: PTRO 201055Z 00000KT 14SM SCT016CB BKN110 BKN290 27/25 A2981 RMK CB ALQDS

时间: 20:48 (11:48 UTC)

预报

该预报发布于6小时和25分钟前的05:23 UTC
预报有效从20日的 06点(UTC)到 21日的 06点(UTC)
风速8节,风向西转西北
能見度: 10公里
散云层高于1500英尺
散云层高于3000英尺
多云层高于12000英尺
附近有阵雨
短暂存在
从 20日的 08点(UTC)到 20日的 12点(UTC)
能見度: 6.4公里
多云层高于1500英尺
阴天层高于3000英尺
阵雨

TAF: PTRO 200523Z 2006/2106 29008KT P6SM VCSH SCT015 SCT030 BKN120 TEMPO 2008/2012 4SM SHRA BKN015 OVC030

超过4000个机场的气象观测和天气预报(METAR&TAF报告)。

可查询的气象台以黄色和红色小点在地图上表示。

将鼠标移到小点上方,可查看气象台名称。

然后点击查看天气观测和预报。

如需切换地图:点击带黑十字的绿色按钮放大地图;点击带横线的绿色按钮缩小地图;或者点击绿色箭头查看邻近地区的地图。


METAR-TAF: